Albuquerque, NM

7:00 PM MDT on July 07, 2015 (GMT -0600)
Vista Casitas | | Change Station
CLOSE
Current Station
Personal Weather Station
Location: Albuquerque, NM
Elevation: 5466 ft
Nearby Weather Stations

Elev 5466 ft 35.19 °N, 106.74 °W | Updated 5 seconds ago

Mostly Cloudy
Mostly Cloudy
74.2 °F
Feels Like 77 °F
N
0.0
Wind Variable Wind from ESE
Gusts 0.0 mph

Today
High -- | Low -- °F
--% Chance of Precip.
Yesterday
High -- | Low -- °F
Precip. -- in
5:59 AM 8:24 PM
Waning Gibbous, 59% visible
Pressure 29.81 in
Visibility 10.0 miles
Clouds Few 6000 ft
Scattered Clouds 14000 ft
Mostly Cloudy 25000 ft
Heat Index 77 °F
Dew Point 53 °F
Humidity 48%
Rainfall 0.77 in
Snow Depth Not available.
UV 1 out of 12
Pollen .50 out of 12
Air Quality Not available.
Flu Activity Not available.
METAR KABQ 080052Z 15007KT 10SM FEW060 SCT140 BKN250 26/09 A3004 RMK AO2 SLP095 T02610094

More Conditions Fewer Conditions

Pressure 29.81 in
Visibility 10.0 miles
Clouds Few 6000 ft
Scattered Clouds 14000 ft
Mostly Cloudy 25000 ft
Heat Index 77 °F
Dew Point 53 °F
Humidity 48%
Rainfall 0.77 in
Snow Depth Not available.
UV 1 out of 12
Pollen .50 out of 12
Air Quality Not available.
Flu Activity Not available.
METAR KABQ 080052Z 15007KT 10SM FEW060 SCT140 BKN250 26/09 A3004 RMK AO2 SLP095 T02610094

More Conditions Fewer Conditions

10-Day Weather Forecast

×

Almanac

Astronomy

Jul. 07, 2015 Rise Set
Actual Time
Civil Twilight
Nautical Twilight
Astronomical Twilight
Moon
Length of Visible Light
Length of Day
Tomorrow will be .
, % of the Moon is Illuminated

Today's Extremes

State Highs State Lows

Community

WunderPhotos

Upload Photos

1,835,985 photos uploaded!

WunderBlogs® & News

Nearby

Air Quality

  Air Quality AQ Index Pollutant
Not available.

Snow Depth

Station Depth Elevation

Earthquake Activity

City Distance Mag. Time & Date
Minimum magnitude displayed is 2.5.

Coastal Water Temperatures

Place Temperature

Stations

Nearby Weather Stations

Station Location Temp. Windchill Dew Point Humidity Wind Precip. Elev Updated Type